Terminal Aerodrome Forecast
Issued by NWS

Home | Current Version | Previous Version | Text Only | Print | Product List | Glossary On
Versions: 1 2 3 4 5 6 7 8 9 10 11 12 13 14 15 16 17 18 19 20 21 22 23 24 25 26 27 28 29 30 31 32
000
FTAK31 PANC 221820 AAA
TAFAAQ
TAF AMD
PAAQ 221820Z 2218/2318 01005KT P6SM SCT020 BKN030 OVC200
      TEMPO 2218/2220 BKN040
     FM222000 18004KT P6SM VCSH BKN050=

USA.gov is the U.S. government's official web portal to all federal, state and local government web resources and services.